sensor_id;sensor_type;location;lat;lon;timestamp;temperature;humidity
18575;DHT22;9417;16.484;102.872;2023-05-10T00:01:37;25.80;96.00
18575;DHT22;9417;16.484;102.872;2023-05-10T00:03:44;25.80;96.20
18575;DHT22;9417;16.484;102.872;2023-05-10T00:05:51;25.80;96.10
18575;DHT22;9417;16.484;102.872;2023-05-10T00:07:58;25.80;96.10
18575;DHT22;9417;16.484;102.872;2023-05-10T00:10:06;25.90;96.00
18575;DHT22;9417;16.484;102.872;2023-05-10T00:12:13;25.90;95.60
18575;DHT22;9417;16.484;102.872;2023-05-10T00:14:22;25.90;95.10
18575;DHT22;9417;16.484;102.872;2023-05-10T00:16:29;25.90;94.90
18575;DHT22;9417;16.484;102.872;2023-05-10T00:18:36;25.90;95.20
18575;DHT22;9417;16.484;102.872;2023-05-10T00:20:43;25.90;95.20
18575;DHT22;9417;16.484;102.872;2023-05-10T00:22:51;25.90;95.20
18575;DHT22;9417;16.484;102.872;2023-05-10T00:24:58;25.90;95.30
18575;DHT22;9417;16.484;102.872;2023-05-10T00:27:05;26.00;95.70
18575;DHT22;9417;16.484;102.872;2023-05-10T00:29:12;26.00;95.10
18575;DHT22;9417;16.484;102.872;2023-05-10T00:31:22;26.00;95.10
18575;DHT22;9417;16.484;102.872;2023-05-10T00:33:29;26.10;94.70
18575;DHT22;9417;16.484;102.872;2023-05-10T00:35:36;26.10;94.10
18575;DHT22;9417;16.484;102.872;2023-05-10T00:37:43;26.10;93.10
18575;DHT22;9417;16.484;102.872;2023-05-10T00:39:50;26.20;93.40
18575;DHT22;9417;16.484;102.872;2023-05-10T00:41:57;26.20;93.40
18575;DHT22;9417;16.484;102.872;2023-05-10T00:44:05;26.30;93.10
18575;DHT22;9417;16.484;102.872;2023-05-10T00:46:12;26.30;92.90
18575;DHT22;9417;16.484;102.872;2023-05-10T00:48:22;26.30;93.30
18575;DHT22;9417;16.484;102.872;2023-05-10T00:50:30;26.30;93.10
18575;DHT22;9417;16.484;102.872;2023-05-10T00:52:37;26.30;93.10
18575;DHT22;9417;16.484;102.872;2023-05-10T00:54:44;26.30;92.60
18575;DHT22;9417;16.484;102.872;2023-05-10T00:56:52;26.30;93.00
18575;DHT22;9417;16.484;102.872;2023-05-10T00:59:00;26.40;93.30
18575;DHT22;9417;16.484;102.872;2023-05-10T01:01:08;26.40;92.50
18575;DHT22;9417;16.484;102.872;2023-05-10T01:03:16;26.40;92.10
18575;DHT22;9417;16.484;102.872;2023-05-10T01:05:25;26.30;92.00
18575;DHT22;9417;16.484;102.872;2023-05-10T01:07:33;26.30;91.80
18575;DHT22;9417;16.484;102.872;2023-05-10T01:09:40;26.40;92.80
18575;DHT22;9417;16.484;102.872;2023-05-10T01:11:47;26.40;92.00
18575;DHT22;9417;16.484;102.872;2023-05-10T01:13:57;26.50;92.10
18575;DHT22;9417;16.484;102.872;2023-05-10T01:16:04;26.60;91.80
18575;DHT22;9417;16.484;102.872;2023-05-10T01:18:12;26.70;91.60
18575;DHT22;9417;16.484;102.872;2023-05-10T01:20:20;26.90;90.50
18575;DHT22;9417;16.484;102.872;2023-05-10T01:25:22;27.00;88.60
18575;DHT22;9417;16.484;102.872;2023-05-10T01:28:06;27.10;89.00
18575;DHT22;9417;16.484;102.872;2023-05-10T01:33:21;27.10;88.20
18575;DHT22;9417;16.484;102.872;2023-05-10T01:35:34;27.20;88.60
18575;DHT22;9417;16.484;102.872;2023-05-10T01:37:47;27.20;88.20
18575;DHT22;9417;16.484;102.872;2023-05-10T01:40:03;27.30;88.40
18575;DHT22;9417;16.484;102.872;2023-05-10T01:42:17;27.40;88.00
18575;DHT22;9417;16.484;102.872;2023-05-10T01:44:33;27.50;87.20
18575;DHT22;9417;16.484;102.872;2023-05-10T01:46:43;27.60;86.30
18575;DHT22;9417;16.484;102.872;2023-05-10T01:48:54;27.70;86.10
18575;DHT22;9417;16.484;102.872;2023-05-10T01:51:03;27.80;86.40
18575;DHT22;9417;16.484;102.872;2023-05-10T01:53:13;27.70;85.60
18575;DHT22;9417;16.484;102.872;2023-05-10T01:55:27;27.70;86.30
18575;DHT22;9417;16.484;102.872;2023-05-10T01:57:35;27.70;85.80
18575;DHT22;9417;16.484;102.872;2023-05-10T01:59:46;27.80;85.90
18575;DHT22;9417;16.484;102.872;2023-05-10T02:01:58;27.90;86.00
18575;DHT22;9417;16.484;102.872;2023-05-10T02:04:08;27.90;85.50
18575;DHT22;9417;16.484;102.872;2023-05-10T02:06:18;28.10;84.30
18575;DHT22;9417;16.484;102.872;2023-05-10T02:08:25;28.20;83.80
18575;DHT22;9417;16.484;102.872;2023-05-10T02:10:33;28.30;83.10
18575;DHT22;9417;16.484;102.872;2023-05-10T02:12:42;28.40;82.40
18575;DHT22;9417;16.484;102.872;2023-05-10T02:14:50;28.60;81.80
18575;DHT22;9417;16.484;102.872;2023-05-10T02:16:59;28.60;81.20
18575;DHT22;9417;16.484;102.872;2023-05-10T02:19:08;28.70;81.30
18575;DHT22;9417;16.484;102.872;2023-05-10T02:21:19;28.80;81.20
18575;DHT22;9417;16.484;102.872;2023-05-10T02:23:27;28.90;80.90
18575;DHT22;9417;16.484;102.872;2023-05-10T02:25:35;29.00;80.50
18575;DHT22;9417;16.484;102.872;2023-05-10T02:27:44;29.10;80.00
18575;DHT22;9417;16.484;102.872;2023-05-10T02:29:52;29.30;79.70
18575;DHT22;9417;16.484;102.872;2023-05-10T02:31:59;29.40;79.50
18575;DHT22;9417;16.484;102.872;2023-05-10T02:34:09;29.40;79.30
18575;DHT22;9417;16.484;102.872;2023-05-10T02:36:17;29.50;79.00
18575;DHT22;9417;16.484;102.872;2023-05-10T02:38:26;29.60;78.60
18575;DHT22;9417;16.484;102.872;2023-05-10T02:40:34;29.60;77.30
18575;DHT22;9417;16.484;102.872;2023-05-10T02:42:43;29.50;77.10
18575;DHT22;9417;16.484;102.872;2023-05-10T02:44:52;29.50;77.70
18575;DHT22;9417;16.484;102.872;2023-05-10T02:47:00;29.60;78.10
18575;DHT22;9417;16.484;102.872;2023-05-10T02:49:08;29.70;78.00
18575;DHT22;9417;16.484;102.872;2023-05-10T02:51:17;29.70;77.80
18575;DHT22;9417;16.484;102.872;2023-05-10T02:53:31;29.90;77.80
18575;DHT22;9417;16.484;102.872;2023-05-10T02:55:40;30.00;77.40
18575;DHT22;9417;16.484;102.872;2023-05-10T02:57:51;30.10;76.90
18575;DHT22;9417;16.484;102.872;2023-05-10T02:59:58;30.10;76.10
18575;DHT22;9417;16.484;102.872;2023-05-10T03:02:05;30.10;75.50
18575;DHT22;9417;16.484;102.872;2023-05-10T03:04:14;30.20;76.00
18575;DHT22;9417;16.484;102.872;2023-05-10T03:06:22;30.20;75.30
18575;DHT22;9417;16.484;102.872;2023-05-10T03:08:29;30.30;75.80
18575;DHT22;9417;16.484;102.872;2023-05-10T03:10:43;30.40;76.10
18575;DHT22;9417;16.484;102.872;2023-05-10T03:13:06;30.50;75.30
18575;DHT22;9417;16.484;102.872;2023-05-10T03:15:21;30.50;75.50
18575;DHT22;9417;16.484;102.872;2023-05-10T03:17:34;30.60;75.30
18575;DHT22;9417;16.484;102.872;2023-05-10T03:19:50;30.70;75.00
18575;DHT22;9417;16.484;102.872;2023-05-10T03:22:03;30.80;74.60
18575;DHT22;9417;16.484;102.872;2023-05-10T03:24:13;30.80;73.60
18575;DHT22;9417;16.484;102.872;2023-05-10T03:26:26;30.80;74.10
18575;DHT22;9417;16.484;102.872;2023-05-10T03:28:43;30.90;74.10
18575;DHT22;9417;16.484;102.872;2023-05-10T03:30:53;31.00;73.60
18575;DHT22;9417;16.484;102.872;2023-05-10T03:33:05;31.00;72.80
18575;DHT22;9417;16.484;102.872;2023-05-10T03:35:17;31.10;73.10
18575;DHT22;9417;16.484;102.872;2023-05-10T03:37:25;31.20;72.60
18575;DHT22;9417;16.484;102.872;2023-05-10T03:39:33;31.30;72.70
18575;DHT22;9417;16.484;102.872;2023-05-10T03:41:42;31.30;72.50
18575;DHT22;9417;16.484;102.872;2023-05-10T03:43:49;31.40;72.00
18575;DHT22;9417;16.484;102.872;2023-05-10T03:45:56;31.40;71.70
18575;DHT22;9417;16.484;102.872;2023-05-10T03:48:04;31.50;71.30
18575;DHT22;9417;16.484;102.872;2023-05-10T03:50:11;31.50;71.10
18575;DHT22;9417;16.484;102.872;2023-05-10T03:52:21;31.50;71.40
18575;DHT22;9417;16.484;102.872;2023-05-10T03:54:27;31.60;71.50
18575;DHT22;9417;16.484;102.872;2023-05-10T03:56:35;31.70;71.60
18575;DHT22;9417;16.484;102.872;2023-05-10T03:58:42;31.80;71.40
18575;DHT22;9417;16.484;102.872;2023-05-10T04:00:50;31.80;70.80
18575;DHT22;9417;16.484;102.872;2023-05-10T04:02:57;31.80;71.00
18575;DHT22;9417;16.484;102.872;2023-05-10T04:05:05;31.90;71.10
18575;DHT22;9417;16.484;102.872;2023-05-10T04:07:12;31.90;70.90
18575;DHT22;9417;16.484;102.872;2023-05-10T04:09:21;31.90;70.70
18575;DHT22;9417;16.484;102.872;2023-05-10T04:11:28;31.90;70.50
18575;DHT22;9417;16.484;102.872;2023-05-10T04:13:35;31.90;70.60
18575;DHT22;9417;16.484;102.872;2023-05-10T04:15:42;32.00;70.70
18575;DHT22;9417;16.484;102.872;2023-05-10T04:17:49;31.90;70.00
18575;DHT22;9417;16.484;102.872;2023-05-10T04:19:57;31.90;70.00
18575;DHT22;9417;16.484;102.872;2023-05-10T04:22:03;32.00;69.80
18575;DHT22;9417;16.484;102.872;2023-05-10T04:24:11;32.00;69.70
18575;DHT22;9417;16.484;102.872;2023-05-10T04:26:20;32.10;69.20
18575;DHT22;9417;16.484;102.872;2023-05-10T04:28:27;32.10;69.30
18575;DHT22;9417;16.484;102.872;2023-05-10T04:30:34;32.10;69.40
18575;DHT22;9417;16.484;102.872;2023-05-10T04:32:41;32.20;69.60
18575;DHT22;9417;16.484;102.872;2023-05-10T04:34:48;32.30;68.50
18575;DHT22;9417;16.484;102.872;2023-05-10T04:36:55;32.30;68.30
18575;DHT22;9417;16.484;102.872;2023-05-10T04:39:02;32.40;69.30
18575;DHT22;9417;16.484;102.872;2023-05-10T04:41:10;32.50;69.70
18575;DHT22;9417;16.484;102.872;2023-05-10T04:43:19;32.60;69.70
18575;DHT22;9417;16.484;102.872;2023-05-10T04:45:26;32.80;69.00
18575;DHT22;9417;16.484;102.872;2023-05-10T04:47:34;32.90;68.50
18575;DHT22;9417;16.484;102.872;2023-05-10T04:49:41;32.90;68.20
18575;DHT22;9417;16.484;102.872;2023-05-10T04:51:48;32.80;68.30
18575;DHT22;9417;16.484;102.872;2023-05-10T04:53:55;32.70;68.20
18575;DHT22;9417;16.484;102.872;2023-05-10T04:56:09;32.70;68.20
18575;DHT22;9417;16.484;102.872;2023-05-10T04:58:18;32.60;68.30
18575;DHT22;9417;16.484;102.872;2023-05-10T05:00:25;32.50;68.60
18575;DHT22;9417;16.484;102.872;2023-05-10T05:02:32;32.50;68.70
18575;DHT22;9417;16.484;102.872;2023-05-10T05:04:39;32.40;68.80
18575;DHT22;9417;16.484;102.872;2023-05-10T05:06:46;32.40;69.30
18575;DHT22;9417;16.484;102.872;2023-05-10T05:08:56;32.40;69.20
18575;DHT22;9417;16.484;102.872;2023-05-10T05:11:03;32.40;69.00
18575;DHT22;9417;16.484;102.872;2023-05-10T05:13:12;32.50;67.60
18575;DHT22;9417;16.484;102.872;2023-05-10T05:15:20;32.40;67.70
18575;DHT22;9417;16.484;102.872;2023-05-10T05:17:28;32.40;68.30
18575;DHT22;9417;16.484;102.872;2023-05-10T05:19:36;32.40;68.70
18575;DHT22;9417;16.484;102.872;2023-05-10T05:21:43;32.30;69.10
18575;DHT22;9417;16.484;102.872;2023-05-10T05:23:50;32.30;69.10
18575;DHT22;9417;16.484;102.872;2023-05-10T05:25:57;32.20;69.20
18575;DHT22;9417;16.484;102.872;2023-05-10T05:28:04;32.20;69.30
18575;DHT22;9417;16.484;102.872;2023-05-10T05:30:12;32.20;67.90
18575;DHT22;9417;16.484;102.872;2023-05-10T05:32:21;32.30;68.20
18575;DHT22;9417;16.484;102.872;2023-05-10T05:34:29;32.30;67.90
18575;DHT22;9417;16.484;102.872;2023-05-10T05:36:37;32.30;68.00
18575;DHT22;9417;16.484;102.872;2023-05-10T05:38:44;32.30;68.10
18575;DHT22;9417;16.484;102.872;2023-05-10T05:40:51;32.40;68.20
18575;DHT22;9417;16.484;102.872;2023-05-10T05:42:58;32.40;68.10
18575;DHT22;9417;16.484;102.872;2023-05-10T05:45:06;32.50;66.90
18575;DHT22;9417;16.484;102.872;2023-05-10T05:47:13;32.60;67.20
18575;DHT22;9417;16.484;102.872;2023-05-10T05:49:22;32.70;67.20
18575;DHT22;9417;16.484;102.872;2023-05-10T05:51:29;32.70;67.20
18575;DHT22;9417;16.484;102.872;2023-05-10T05:53:37;32.70;67.00
18575;DHT22;9417;16.484;102.872;2023-05-10T05:55:52;32.70;66.70
18575;DHT22;9417;16.484;102.872;2023-05-10T05:57:59;32.70;67.80
18575;DHT22;9417;16.484;102.872;2023-05-10T06:00:07;32.80;67.60
18575;DHT22;9417;16.484;102.872;2023-05-10T06:02:17;32.70;67.50
18575;DHT22;9417;16.484;102.872;2023-05-10T06:04:26;32.70;67.70
18575;DHT22;9417;16.484;102.872;2023-05-10T06:06:33;32.80;67.70
18575;DHT22;9417;16.484;102.872;2023-05-10T06:08:41;32.80;67.50
18575;DHT22;9417;16.484;102.872;2023-05-10T06:10:47;32.90;69.00
18575;DHT22;9417;16.484;102.872;2023-05-10T06:12:55;32.70;67.60
18575;DHT22;9417;16.484;102.872;2023-05-10T06:15:02;32.70;69.00
18575;DHT22;9417;16.484;102.872;2023-05-10T06:17:09;32.60;69.60
18575;DHT22;9417;16.484;102.872;2023-05-10T06:19:16;32.60;70.00
18575;DHT22;9417;16.484;102.872;2023-05-10T06:21:25;32.60;70.50
18575;DHT22;9417;16.484;102.872;2023-05-10T06:23:32;32.60;71.10
18575;DHT22;9417;16.484;102.872;2023-05-10T06:25:39;32.60;71.00
18575;DHT22;9417;16.484;102.872;2023-05-10T06:27:46;32.70;70.80
18575;DHT22;9417;16.484;102.872;2023-05-10T06:29:56;32.80;70.50
18575;DHT22;9417;16.484;102.872;2023-05-10T06:32:15;33.00;70.50
18575;DHT22;9417;16.484;102.872;2023-05-10T06:34:22;33.10;69.80
18575;DHT22;9417;16.484;102.872;2023-05-10T06:36:31;33.20;69.30
18575;DHT22;9417;16.484;102.872;2023-05-10T06:38:38;33.20;69.20
18575;DHT22;9417;16.484;102.872;2023-05-10T06:40:45;33.30;69.40
18575;DHT22;9417;16.484;102.872;2023-05-10T06:42:52;33.30;69.20
18575;DHT22;9417;16.484;102.872;2023-05-10T06:44:59;33.30;68.60
18575;DHT22;9417;16.484;102.872;2023-05-10T06:47:06;33.30;68.30
18575;DHT22;9417;16.484;102.872;2023-05-10T06:49:13;33.40;68.50
18575;DHT22;9417;16.484;102.872;2023-05-10T06:51:20;33.40;67.50
18575;DHT22;9417;16.484;102.872;2023-05-10T06:53:29;33.50;66.60
18575;DHT22;9417;16.484;102.872;2023-05-10T06:55:36;33.40;67.40
18575;DHT22;9417;16.484;102.872;2023-05-10T06:57:43;33.40;67.80
18575;DHT22;9417;16.484;102.872;2023-05-10T06:59:51;33.40;68.60
18575;DHT22;9417;16.484;102.872;2023-05-10T07:02:03;33.40;68.10
18575;DHT22;9417;16.484;102.872;2023-05-10T07:04:10;33.40;68.30
18575;DHT22;9417;16.484;102.872;2023-05-10T07:06:18;33.40;68.10
18575;DHT22;9417;16.484;102.872;2023-05-10T07:08:38;33.20;67.90
18575;DHT22;9417;16.484;102.872;2023-05-10T07:10:45;33.10;68.10
18575;DHT22;9417;16.484;102.872;2023-05-10T07:12:52;33.20;68.70
18575;DHT22;9417;16.484;102.872;2023-05-10T07:15:02;33.30;68.50
18575;DHT22;9417;16.484;102.872;2023-05-10T07:17:09;33.40;68.50
18575;DHT22;9417;16.484;102.872;2023-05-10T07:19:16;33.50;68.70
18575;DHT22;9417;16.484;102.872;2023-05-10T07:21:24;33.70;68.40
18575;DHT22;9417;16.484;102.872;2023-05-10T07:23:33;33.80;66.70
18575;DHT22;9417;16.484;102.872;2023-05-10T07:25:41;33.90;66.50
18575;DHT22;9417;16.484;102.872;2023-05-10T07:27:51;33.90;66.20
18575;DHT22;9417;16.484;102.872;2023-05-10T07:29:58;34.00;65.70
18575;DHT22;9417;16.484;102.872;2023-05-10T07:32:05;34.20;65.30
18575;DHT22;9417;16.484;102.872;2023-05-10T07:34:12;34.20;65.10
18575;DHT22;9417;16.484;102.872;2023-05-10T07:36:19;34.30;64.80
18575;DHT22;9417;16.484;102.872;2023-05-10T07:38:26;34.40;64.20
18575;DHT22;9417;16.484;102.872;2023-05-10T07:40:33;34.40;64.20
18575;DHT22;9417;16.484;102.872;2023-05-10T07:42:42;34.40;63.50
18575;DHT22;9417;16.484;102.872;2023-05-10T07:44:49;34.50;63.40
18575;DHT22;9417;16.484;102.872;2023-05-10T07:46:56;34.60;63.70
18575;DHT22;9417;16.484;102.872;2023-05-10T07:49:04;34.60;63.40
18575;DHT22;9417;16.484;102.872;2023-05-10T07:51:11;34.70;63.10
18575;DHT22;9417;16.484;102.872;2023-05-10T07:53:18;34.70;62.80
18575;DHT22;9417;16.484;102.872;2023-05-10T07:55:25;34.80;62.70
18575;DHT22;9417;16.484;102.872;2023-05-10T07:57:33;34.70;62.30
18575;DHT22;9417;16.484;102.872;2023-05-10T07:59:42;34.70;61.70
18575;DHT22;9417;16.484;102.872;2023-05-10T08:01:48;34.60;62.70
18575;DHT22;9417;16.484;102.872;2023-05-10T08:03:56;34.50;62.80
18575;DHT22;9417;16.484;102.872;2023-05-10T08:06:03;34.60;62.80
18575;DHT22;9417;16.484;102.872;2023-05-10T08:08:10;34.60;62.40
18575;DHT22;9417;16.484;102.872;2023-05-10T08:10:17;34.60;62.60
18575;DHT22;9417;16.484;102.872;2023-05-10T08:12:25;34.60;63.10
18575;DHT22;9417;16.484;102.872;2023-05-10T08:14:32;34.70;63.10
18575;DHT22;9417;16.484;102.872;2023-05-10T08:16:41;34.60;63.00
18575;DHT22;9417;16.484;102.872;2023-05-10T08:18:48;34.50;62.90
18575;DHT22;9417;16.484;102.872;2023-05-10T08:20:55;34.30;63.20
18575;DHT22;9417;16.484;102.872;2023-05-10T08:23:02;34.20;63.40
18575;DHT22;9417;16.484;102.872;2023-05-10T08:25:09;34.20;63.60
18575;DHT22;9417;16.484;102.872;2023-05-10T08:27:16;34.30;63.50
18575;DHT22;9417;16.484;102.872;2023-05-10T08:29:23;34.30;60.90
18575;DHT22;9417;16.484;102.872;2023-05-10T08:31:33;34.30;62.30
18575;DHT22;9417;16.484;102.872;2023-05-10T08:33:41;34.40;62.00
18575;DHT22;9417;16.484;102.872;2023-05-10T08:35:48;34.40;63.10
18575;DHT22;9417;16.484;102.872;2023-05-10T08:37:55;34.40;62.90
18575;DHT22;9417;16.484;102.872;2023-05-10T08:40:02;34.30;62.80
18575;DHT22;9417;16.484;102.872;2023-05-10T08:42:09;34.20;63.20
18575;DHT22;9417;16.484;102.872;2023-05-10T08:44:17;34.10;63.20
18575;DHT22;9417;16.484;102.872;2023-05-10T08:46:27;34.10;64.10
18575;DHT22;9417;16.484;102.872;2023-05-10T08:48:35;34.10;64.60
18575;DHT22;9417;16.484;102.872;2023-05-10T08:50:45;34.10;64.50
18575;DHT22;9417;16.484;102.872;2023-05-10T08:52:54;34.00;64.10
18575;DHT22;9417;16.484;102.872;2023-05-10T08:55:02;33.80;64.60
18575;DHT22;9417;16.484;102.872;2023-05-10T08:57:09;33.70;64.90
18575;DHT22;9417;16.484;102.872;2023-05-10T08:59:16;33.60;64.20
18575;DHT22;9417;16.484;102.872;2023-05-10T09:01:23;33.50;64.30
18575;DHT22;9417;16.484;102.872;2023-05-10T09:03:32;33.60;64.40
18575;DHT22;9417;16.484;102.872;2023-05-10T09:05:39;33.70;64.30
18575;DHT22;9417;16.484;102.872;2023-05-10T09:07:48;33.80;64.20
18575;DHT22;9417;16.484;102.872;2023-05-10T09:09:55;33.90;64.10
18575;DHT22;9417;16.484;102.872;2023-05-10T09:12:03;33.80;64.10
18575;DHT22;9417;16.484;102.872;2023-05-10T09:14:11;33.70;64.60
18575;DHT22;9417;16.484;102.872;2023-05-10T09:16:19;33.60;64.80
18575;DHT22;9417;16.484;102.872;2023-05-10T09:18:26;33.50;65.10
18575;DHT22;9417;16.484;102.872;2023-05-10T09:20:33;33.40;65.50
18575;DHT22;9417;16.484;102.872;2023-05-10T09:22:56;33.30;65.90
18575;DHT22;9417;16.484;102.872;2023-05-10T09:25:16;33.30;66.30
18575;DHT22;9417;16.484;102.872;2023-05-10T09:27:27;33.20;66.20
18575;DHT22;9417;16.484;102.872;2023-05-10T09:29:40;33.10;66.20
18575;DHT22;9417;16.484;102.872;2023-05-10T09:31:48;33.10;66.30
18575;DHT22;9417;16.484;102.872;2023-05-10T09:34:17;33.10;66.60
18575;DHT22;9417;16.484;102.872;2023-05-10T09:36:51;33.00;66.60
18575;DHT22;9417;16.484;102.872;2023-05-10T09:39:01;32.90;66.70
18575;DHT22;9417;16.484;102.872;2023-05-10T09:41:16;32.90;66.90
18575;DHT22;9417;16.484;102.872;2023-05-10T09:43:23;32.80;66.90
18575;DHT22;9417;16.484;102.872;2023-05-10T09:45:33;32.80;66.90
18575;DHT22;9417;16.484;102.872;2023-05-10T09:47:46;32.80;66.90
18575;DHT22;9417;16.484;102.872;2023-05-10T09:49:53;32.80;67.00
18575;DHT22;9417;16.484;102.872;2023-05-10T09:52:04;32.80;67.30
18575;DHT22;9417;16.484;102.872;2023-05-10T09:54:17;32.70;67.50
18575;DHT22;9417;16.484;102.872;2023-05-10T09:56:38;32.60;67.70
18575;DHT22;9417;16.484;102.872;2023-05-10T09:59:03;32.60;68.20
18575;DHT22;9417;16.484;102.872;2023-05-10T10:01:12;32.60;69.40
18575;DHT22;9417;16.484;102.872;2023-05-10T10:03:20;32.40;69.70
18575;DHT22;9417;16.484;102.872;2023-05-10T10:05:31;32.40;70.00
18575;DHT22;9417;16.484;102.872;2023-05-10T10:07:54;32.30;70.60
18575;DHT22;9417;16.484;102.872;2023-05-10T10:10:20;32.20;70.50
18575;DHT22;9417;16.484;102.872;2023-05-10T10:12:28;32.20;70.80
18575;DHT22;9417;16.484;102.872;2023-05-10T10:14:35;32.20;70.70
18575;DHT22;9417;16.484;102.872;2023-05-10T10:16:42;32.20;70.00
18575;DHT22;9417;16.484;102.872;2023-05-10T10:19:11;32.10;70.00
18575;DHT22;9417;16.484;102.872;2023-05-10T10:21:32;32.10;69.70
18575;DHT22;9417;16.484;102.872;2023-05-10T10:23:43;32.10;69.30
18575;DHT22;9417;16.484;102.872;2023-05-10T10:25:54;32.00;70.30
18575;DHT22;9417;16.484;102.872;2023-05-10T10:28:24;32.00;70.30
18575;DHT22;9417;16.484;102.872;2023-05-10T10:30:52;32.00;71.40
18575;DHT22;9417;16.484;102.872;2023-05-10T10:33:23;31.80;70.50
18575;DHT22;9417;16.484;102.872;2023-05-10T10:35:34;31.60;68.60
18575;DHT22;9417;16.484;102.872;2023-05-10T10:37:44;31.50;69.50
18575;DHT22;9417;16.484;102.872;2023-05-10T10:39:52;31.30;69.10
18575;DHT22;9417;16.484;102.872;2023-05-10T10:42:04;31.20;69.40
18575;DHT22;9417;16.484;102.872;2023-05-10T10:44:37;31.10;69.60
18575;DHT22;9417;16.484;102.872;2023-05-10T10:47:21;30.90;70.10
18575;DHT22;9417;16.484;102.872;2023-05-10T10:49:42;30.80;70.40
18575;DHT22;9417;16.484;102.872;2023-05-10T10:52:22;30.70;70.70
18575;DHT22;9417;16.484;102.872;2023-05-10T10:54:36;30.60;70.70
18575;DHT22;9417;16.484;102.872;2023-05-10T10:56:45;30.50;70.90
18575;DHT22;9417;16.484;102.872;2023-05-10T10:59:27;30.50;71.10
18575;DHT22;9417;16.484;102.872;2023-05-10T11:01:34;30.50;70.80
18575;DHT22;9417;16.484;102.872;2023-05-10T11:04:18;30.40;71.00
18575;DHT22;9417;16.484;102.872;2023-05-10T11:06:32;30.40;71.80
18575;DHT22;9417;16.484;102.872;2023-05-10T11:08:44;30.30;72.00
18575;DHT22;9417;16.484;102.872;2023-05-10T11:11:04;30.20;72.30
18575;DHT22;9417;16.484;102.872;2023-05-10T11:13:12;30.20;72.50
18575;DHT22;9417;16.484;102.872;2023-05-10T11:15:20;30.10;72.90
18575;DHT22;9417;16.484;102.872;2023-05-10T11:17:39;30.00;73.30
18575;DHT22;9417;16.484;102.872;2023-05-10T11:20:09;30.00;74.00
18575;DHT22;9417;16.484;102.872;2023-05-10T11:22:22;29.90;74.50
18575;DHT22;9417;16.484;102.872;2023-05-10T11:24:34;29.90;74.70
18575;DHT22;9417;16.484;102.872;2023-05-10T11:26:41;29.90;75.10
18575;DHT22;9417;16.484;102.872;2023-05-10T11:28:49;29.80;75.40
18575;DHT22;9417;16.484;102.872;2023-05-10T11:30:58;29.90;76.00
18575;DHT22;9417;16.484;102.872;2023-05-10T11:33:06;29.90;75.80
18575;DHT22;9417;16.484;102.872;2023-05-10T11:35:14;29.90;75.80
18575;DHT22;9417;16.484;102.872;2023-05-10T11:37:21;29.90;76.10
18575;DHT22;9417;16.484;102.872;2023-05-10T11:39:46;29.90;76.40
18575;DHT22;9417;16.484;102.872;2023-05-10T11:42:06;29.80;76.80
18575;DHT22;9417;16.484;102.872;2023-05-10T11:44:13;29.80;77.20
18575;DHT22;9417;16.484;102.872;2023-05-10T11:46:24;29.80;77.50
18575;DHT22;9417;16.484;102.872;2023-05-10T11:48:32;29.80;77.50
18575;DHT22;9417;16.484;102.872;2023-05-10T11:50:39;29.80;78.30
18575;DHT22;9417;16.484;102.872;2023-05-10T11:52:46;29.70;77.40
18575;DHT22;9417;16.484;102.872;2023-05-10T11:54:57;29.70;76.80
18575;DHT22;9417;16.484;102.872;2023-05-10T11:57:04;29.60;76.90
18575;DHT22;9417;16.484;102.872;2023-05-10T11:59:15;29.60;77.60
18575;DHT22;9417;16.484;102.872;2023-05-10T12:01:24;29.60;78.70
18575;DHT22;9417;16.484;102.872;2023-05-10T12:03:32;29.60;78.70
18575;DHT22;9417;16.484;102.872;2023-05-10T12:05:41;29.60;78.60
18575;DHT22;9417;16.484;102.872;2023-05-10T12:07:48;29.60;78.90
18575;DHT22;9417;16.484;102.872;2023-05-10T12:10:09;29.60;78.80
18575;DHT22;9417;16.484;102.872;2023-05-10T12:12:19;29.60;78.60
18575;DHT22;9417;16.484;102.872;2023-05-10T12:14:42;29.60;78.30
18575;DHT22;9417;16.484;102.872;2023-05-10T12:16:59;29.60;78.90
18575;DHT22;9417;16.484;102.872;2023-05-10T12:19:06;29.60;79.30
18575;DHT22;9417;16.484;102.872;2023-05-10T12:21:14;29.50;78.80
18575;DHT22;9417;16.484;102.872;2023-05-10T12:23:21;29.50;79.00
18575;DHT22;9417;16.484;102.872;2023-05-10T12:25:41;29.40;79.60
18575;DHT22;9417;16.484;102.872;2023-05-10T12:28:04;29.50;80.00
18575;DHT22;9417;16.484;102.872;2023-05-10T12:30:12;29.50;79.80
18575;DHT22;9417;16.484;102.872;2023-05-10T12:32:21;29.50;79.70
18575;DHT22;9417;16.484;102.872;2023-05-10T12:34:43;29.50;79.20
18575;DHT22;9417;16.484;102.872;2023-05-10T12:36:53;29.50;78.90
18575;DHT22;9417;16.484;102.872;2023-05-10T12:39:14;29.50;78.70
18575;DHT22;9417;16.484;102.872;2023-05-10T12:41:21;29.50;78.70
18575;DHT22;9417;16.484;102.872;2023-05-10T12:43:30;29.50;79.50
18575;DHT22;9417;16.484;102.872;2023-05-10T12:45:39;29.50;79.50
18575;DHT22;9417;16.484;102.872;2023-05-10T12:48:05;29.50;79.70
18575;DHT22;9417;16.484;102.872;2023-05-10T12:50:40;29.50;79.70
18575;DHT22;9417;16.484;102.872;2023-05-10T12:52:55;29.50;79.30
18575;DHT22;9417;16.484;102.872;2023-05-10T12:55:02;29.50;79.20
18575;DHT22;9417;16.484;102.872;2023-05-10T12:57:10;29.50;78.90
18575;DHT22;9417;16.484;102.872;2023-05-10T12:59:17;29.50;78.70
18575;DHT22;9417;16.484;102.872;2023-05-10T13:01:29;29.50;78.70
18575;DHT22;9417;16.484;102.872;2023-05-10T13:03:38;29.40;78.40
18575;DHT22;9417;16.484;102.872;2023-05-10T13:05:47;29.40;77.80
18575;DHT22;9417;16.484;102.872;2023-05-10T13:07:54;29.40;77.60
18575;DHT22;9417;16.484;102.872;2023-05-10T13:10:01;29.40;78.00
18575;DHT22;9417;16.484;102.872;2023-05-10T13:12:08;29.40;78.10
18575;DHT22;9417;16.484;102.872;2023-05-10T13:14:16;29.40;77.70
18575;DHT22;9417;16.484;102.872;2023-05-10T13:16:24;29.40;77.10
18575;DHT22;9417;16.484;102.872;2023-05-10T13:18:32;29.30;76.70
18575;DHT22;9417;16.484;102.872;2023-05-10T13:20:54;29.30;76.70
18575;DHT22;9417;16.484;102.872;2023-05-10T13:23:02;29.30;76.40
18575;DHT22;9417;16.484;102.872;2023-05-10T13:25:09;29.30;76.50
18575;DHT22;9417;16.484;102.872;2023-05-10T13:27:16;29.30;76.50
18575;DHT22;9417;16.484;102.872;2023-05-10T13:29:23;29.30;76.80
18575;DHT22;9417;16.484;102.872;2023-05-10T13:31:30;29.30;76.90
18575;DHT22;9417;16.484;102.872;2023-05-10T13:33:37;29.20;76.90
18575;DHT22;9417;16.484;102.872;2023-05-10T13:35:44;29.20;77.00